Terminal Aerodrome Forecast
Issued by NWS Sterling, VA

Home | Current Version | Previous Version | Text Only | Print | Product List | Glossary On
Versions: 1 2 3 4 5 6 7 8 9 10 11 12 13 14 15 16 17 18 19 20
693
FTUS41 KLWX 301729
TAFIAD
TAF
KIAD 301729Z 3018/3124 15004KT P6SM SCT035 BKN070
     FM310500 VRB03KT 3SM BR SCT110 BKN130
     FM311300 35004KT P6SM BKN200 BKN250
     FM312200 06005KT P6SM SCT250=

USA.gov is the U.S. government's official web portal to all federal, state and local government web resources and services.